Página principal
METAR-TAF:

METAR-TAF

Aeroportos :

Unalakleet, Alasca, Estados Unidos

latitude: 63-53N, longitude: 160-48W, altura: 6 m

Observação actual do tempo

O boletim foi feito há 30 minutos, às 21:56 UTC
Vento 11 kt de noroeste
Temperatura 9°C
Humidade 71%
Pressão 1027 hPa
Visibilidade: 16.1 km
Encobertoa uma altura de 2400 ft

METAR: PAUN 142156Z AUTO 31011KT 10SM OVC024 09/04 A3033 RMK AO2 SLP273 T00940044

Hora: 14:26 (22:26 UTC)

Previsão

O boletim foi feito há 4 horas e 5 minutos, às 18:21 UTC
Previsão válida de 14 às 18 UTC a 15 às 18 UTC
Vento 8 kt de oes-noroeste
Visibilidade: 10 km
Encobertoa uma altura de 1800 ft
Temporariamente
de 14 às 18 UTC a 14 às 21 UTC
Visibilidade: 9.7 km
Nuvens fragmentadasa uma altura de 700 ft
chuva fraca, neblina
A partir de 14 às 2200 UTC
Vento 8 kt de oes-noroeste
Visibilidade: 10 km
Nuvens fragmentadasa uma altura de 2500 ft

TAF: PAUN 141821Z 1418/1518 30008KT P6SM OVC018 TEMPO 1418/1421 6SM -RA BR BKN007 FM142200 30008KT P6SM BKN025

Observações e previsões do tempo de mais de 4000 aeroportos (mensagens METAR e TAF).

As estações disponíveis são os pontos amarelos e vermelhos sobre o mapa.

Mova o rato sobre o mapa para ver o nome da estação.

Depois clique no ponto para visualizar as observações e previsões meteorológicas.

Para alterar o mapa : clique nos botões verdes com uma cruz preta para aumentar o zoom; no botão verde com uma pitada de zoom; ou nas setas verdes para mapas adjacentes.


METAR-TAF: